This is the latest recevied weather packets stored in our database for station/object SA3ARQ-13. If no packets are shown the sender has not sent any weather packets the latest 10 day(s).
| Time | Temp. | Humidity | Pressure | Rain* | Wind** | Luminosity | Snow |
|---|---|---|---|---|---|---|---|
| 1777612025 | 12.22° C | 46% | 1021.1 hPa | - | - | - | - |
| 1777611125 | 11.67° C | 46% | 1021.2 hPa | - | - | - | - |
| 1777610225 | 11.11° C | 47% | 1021.3 hPa | - | - | - | - |
| 1777609325 | 10.56° C | 47% | 1021.3 hPa | - | - | - | - |
| 1777608425 | 10° C | 48% | 1021.4 hPa | - | - | - | - |
| 1777607525 | 10° C | 48% | 1021.6 hPa | - | - | - | - |
| 1777606625 | 10° C | 48% | 1021.6 hPa | - | - | - | - |
| 1777605725 | 10.56° C | 48% | 1021.8 hPa | - | - | - | - |
| 1777604825 | 10.56° C | 48% | 1022.1 hPa | - | - | - | - |
| 1777603925 | 10.56° C | 48% | 1022.2 hPa | - | - | - | - |
| 1777603025 | 11.11° C | 47% | 1022.4 hPa | - | - | - | - |
| 1777602125 | 11.11° C | 47% | 1022.5 hPa | - | - | - | - |
| 1777584120 | 17.22° C | 44% | 1023.3 hPa | - | - | - | - |
| 1777579620 | 18.89° C | 43% | 1023.4 hPa | - | - | - | - |
| 1777577820 | 20° C | 43% | 1023.1 hPa | - | - | - | - |
| 1777576920 | 20.56° C | 43% | 1023.2 hPa | - | - | - | - |
| 1777574220 | 21.67° C | 45% | 1023.3 hPa | - | - | - | - |
| 1777573320 | 22.22° C | 46% | 1023.1 hPa | - | - | - | - |
| 1777570620 | 22.78° C | 47% | 1023 hPa | - | - | - | - |
| 1777566119 | 23.33° C | 45% | 1022.8 hPa | - | - | - | - |
| 1777563419 | 23.89° C | 46% | 1023 hPa | - | - | - | - |
| 1777558019 | 23.33° C | 47% | 1023.3 hPa | - | - | - | - |
| 1777557119 | 22.78° C | 47% | 1023.5 hPa | - | - | - | - |
| 1777553518 | 22.22° C | 47% | 1023.9 hPa | - | - | - | - |
| 1777550818 | 21.67° C | 49% | 1024 hPa | - | - | - | - |
* Rain since midnight (hover to see other rain measurements)
** Current wind speed in m/s (hover to see current wind gust speed)